Terminal Aerodrome Forecast
Issued by NWS Mobile, AL

Home | Current Version | Previous Version | Text Only | Print | Product List | Glossary On
Versions: 1 2 3 4 5 6 7 8 9 10 11 12 13 14 15 16
000
FTUS44 KMOB 170555
TAFPNS
TAF
KPNS 170555Z 1706/1806 20003KT P6SM SKC
     FM171500 28006KT P6SM SCT030
     FM171900 23006KT P6SM VCTS SCT035CB PROB30 1720/1802 5SM TSRA
      BKN040CB
     FM180200 25005KT P6SM SKC=

USA.gov is the U.S. government's official web portal to all federal, state and local government web resources and services.